sensor_id;sensor_type;location;lat;lon;timestamp;temperature;humidity
2212;DHT22;48849;48.758;9.158;2023-05-29T00:00:13;18.70;99.90
2212;DHT22;48849;48.758;9.158;2023-05-29T00:02:41;18.70;99.90
2212;DHT22;48849;48.758;9.158;2023-05-29T00:05:11;18.60;99.90
2212;DHT22;48849;48.758;9.158;2023-05-29T00:07:38;18.60;99.90
2212;DHT22;48849;48.758;9.158;2023-05-29T00:10:07;18.60;99.90
2212;DHT22;48849;48.758;9.158;2023-05-29T00:12:34;18.60;99.90
2212;DHT22;48849;48.758;9.158;2023-05-29T00:15:01;18.60;99.90
2212;DHT22;48849;48.758;9.158;2023-05-29T00:17:29;18.50;99.90
2212;DHT22;48849;48.758;9.158;2023-05-29T00:19:57;18.50;99.90
2212;DHT22;48849;48.758;9.158;2023-05-29T00:22:25;18.50;99.90
2212;DHT22;48849;48.758;9.158;2023-05-29T00:24:52;18.40;99.90
2212;DHT22;48849;48.758;9.158;2023-05-29T00:27:19;18.40;99.90
2212;DHT22;48849;48.758;9.158;2023-05-29T00:29:46;18.40;99.90
2212;DHT22;48849;48.758;9.158;2023-05-29T00:32:13;18.40;99.90
2212;DHT22;48849;48.758;9.158;2023-05-29T00:34:40;18.30;99.90
2212;DHT22;48849;48.758;9.158;2023-05-29T00:37:06;18.30;99.90
2212;DHT22;48849;48.758;9.158;2023-05-29T00:39:35;18.30;99.90
2212;DHT22;48849;48.758;9.158;2023-05-29T00:42:02;18.30;99.90
2212;DHT22;48849;48.758;9.158;2023-05-29T00:44:29;18.30;99.90
2212;DHT22;48849;48.758;9.158;2023-05-29T00:46:56;18.30;99.90
2212;DHT22;48849;48.758;9.158;2023-05-29T00:49:24;18.20;99.90
2212;DHT22;48849;48.758;9.158;2023-05-29T00:51:53;18.20;99.90
2212;DHT22;48849;48.758;9.158;2023-05-29T00:54:22;18.20;99.90
2212;DHT22;48849;48.758;9.158;2023-05-29T00:56:51;18.10;99.90
2212;DHT22;48849;48.758;9.158;2023-05-29T00:59:19;18.10;99.90
2212;DHT22;48849;48.758;9.158;2023-05-29T01:01:49;18.10;99.90
2212;DHT22;48849;48.758;9.158;2023-05-29T01:04:16;18.10;99.90
2212;DHT22;48849;48.758;9.158;2023-05-29T01:06:43;18.10;99.90
2212;DHT22;48849;48.758;9.158;2023-05-29T01:09:11;18.10;99.90
2212;DHT22;48849;48.758;9.158;2023-05-29T01:11:47;18.00;99.90
2212;DHT22;48849;48.758;9.158;2023-05-29T01:14:33;17.90;99.90
2212;DHT22;48849;48.758;9.158;2023-05-29T01:17:08;17.90;99.90
2212;DHT22;48849;48.758;9.158;2023-05-29T01:19:57;17.90;99.90
2212;DHT22;48849;48.758;9.158;2023-05-29T01:22:35;17.90;99.90
2212;DHT22;48849;48.758;9.158;2023-05-29T01:25:11;17.90;99.90
2212;DHT22;48849;48.758;9.158;2023-05-29T01:27:46;17.90;99.90
2212;DHT22;48849;48.758;9.158;2023-05-29T01:30:15;17.80;99.90
2212;DHT22;48849;48.758;9.158;2023-05-29T01:32:43;17.90;99.90
2212;DHT22;48849;48.758;9.158;2023-05-29T01:35:10;17.80;99.90
2212;DHT22;48849;48.758;9.158;2023-05-29T01:37:37;17.70;99.90
2212;DHT22;48849;48.758;9.158;2023-05-29T01:40:04;17.70;99.90
2212;DHT22;48849;48.758;9.158;2023-05-29T01:42:31;17.70;99.90
2212;DHT22;48849;48.758;9.158;2023-05-29T01:45:01;17.70;99.90
2212;DHT22;48849;48.758;9.158;2023-05-29T01:47:34;17.70;99.90
2212;DHT22;48849;48.758;9.158;2023-05-29T01:50:03;17.70;99.90
2212;DHT22;48849;48.758;9.158;2023-05-29T01:52:31;17.60;99.90
2212;DHT22;48849;48.758;9.158;2023-05-29T01:54:58;17.60;99.90
2212;DHT22;48849;48.758;9.158;2023-05-29T01:57:25;17.60;99.90
2212;DHT22;48849;48.758;9.158;2023-05-29T01:59:53;17.60;99.90
2212;DHT22;48849;48.758;9.158;2023-05-29T02:02:23;17.50;99.90
2212;DHT22;48849;48.758;9.158;2023-05-29T02:04:49;17.50;99.90
2212;DHT22;48849;48.758;9.158;2023-05-29T02:07:17;17.50;99.90
2212;DHT22;48849;48.758;9.158;2023-05-29T02:09:44;17.50;99.90
2212;DHT22;48849;48.758;9.158;2023-05-29T02:12:11;17.40;99.90
2212;DHT22;48849;48.758;9.158;2023-05-29T02:14:38;17.40;99.90
2212;DHT22;48849;48.758;9.158;2023-05-29T02:17:05;17.40;99.90
2212;DHT22;48849;48.758;9.158;2023-05-29T02:19:34;17.40;99.90
2212;DHT22;48849;48.758;9.158;2023-05-29T02:22:02;17.40;99.90
2212;DHT22;48849;48.758;9.158;2023-05-29T02:24:29;17.40;99.90
2212;DHT22;48849;48.758;9.158;2023-05-29T02:26:56;17.40;99.90
2212;DHT22;48849;48.758;9.158;2023-05-29T02:29:22;17.30;99.90
2212;DHT22;48849;48.758;9.158;2023-05-29T02:31:49;17.30;99.90
2212;DHT22;48849;48.758;9.158;2023-05-29T02:34:16;17.30;99.90
2212;DHT22;48849;48.758;9.158;2023-05-29T02:36:44;17.30;99.90
2212;DHT22;48849;48.758;9.158;2023-05-29T02:39:11;17.20;99.90
2212;DHT22;48849;48.758;9.158;2023-05-29T02:41:38;17.30;99.90
2212;DHT22;48849;48.758;9.158;2023-05-29T02:44:05;17.20;99.90
2212;DHT22;48849;48.758;9.158;2023-05-29T02:46:32;17.20;99.90
2212;DHT22;48849;48.758;9.158;2023-05-29T02:48:58;17.20;99.90
2212;DHT22;48849;48.758;9.158;2023-05-29T02:51:25;17.20;99.90
2212;DHT22;48849;48.758;9.158;2023-05-29T02:53:54;17.10;99.90
2212;DHT22;48849;48.758;9.158;2023-05-29T02:56:21;17.10;99.90
2212;DHT22;48849;48.758;9.158;2023-05-29T02:58:49;17.10;99.90
2212;DHT22;48849;48.758;9.158;2023-05-29T03:01:16;17.00;99.90
2212;DHT22;48849;48.758;9.158;2023-05-29T03:03:43;17.10;99.90
2212;DHT22;48849;48.758;9.158;2023-05-29T03:06:10;17.00;99.90
2212;DHT22;48849;48.758;9.158;2023-05-29T03:08:38;17.00;99.90
2212;DHT22;48849;48.758;9.158;2023-05-29T03:11:07;17.00;99.90
2212;DHT22;48849;48.758;9.158;2023-05-29T03:13:34;16.90;99.90
2212;DHT22;48849;48.758;9.158;2023-05-29T03:16:02;16.90;99.90
2212;DHT22;48849;48.758;9.158;2023-05-29T03:18:29;16.90;99.90
2212;DHT22;48849;48.758;9.158;2023-05-29T03:20:55;16.90;99.90
2212;DHT22;48849;48.758;9.158;2023-05-29T03:23:23;16.90;99.90
2212;DHT22;48849;48.758;9.158;2023-05-29T03:25:49;16.90;99.90
2212;DHT22;48849;48.758;9.158;2023-05-29T03:28:18;16.80;99.90
2212;DHT22;48849;48.758;9.158;2023-05-29T03:30:44;16.80;99.90
2212;DHT22;48849;48.758;9.158;2023-05-29T03:33:11;16.80;99.90
2212;DHT22;48849;48.758;9.158;2023-05-29T03:35:38;16.70;99.90
2212;DHT22;48849;48.758;9.158;2023-05-29T03:38:05;16.80;99.90
2212;DHT22;48849;48.758;9.158;2023-05-29T03:40:32;16.70;99.90
2212;DHT22;48849;48.758;9.158;2023-05-29T03:42:59;16.70;99.90
2212;DHT22;48849;48.758;9.158;2023-05-29T03:45:27;16.70;99.90
2212;DHT22;48849;48.758;9.158;2023-05-29T03:47:54;16.70;99.90
2212;DHT22;48849;48.758;9.158;2023-05-29T03:50:21;16.70;99.90
2212;DHT22;48849;48.758;9.158;2023-05-29T03:52:47;16.70;99.90
2212;DHT22;48849;48.758;9.158;2023-05-29T03:55:14;16.60;99.90
2212;DHT22;48849;48.758;9.158;2023-05-29T03:57:41;16.60;99.90
2212;DHT22;48849;48.758;9.158;2023-05-29T04:00:10;16.60;99.90
2212;DHT22;48849;48.758;9.158;2023-05-29T04:02:39;16.60;99.90
2212;DHT22;48849;48.758;9.158;2023-05-29T04:05:07;16.50;99.90
2212;DHT22;48849;48.758;9.158;2023-05-29T04:07:35;16.50;99.90
2212;DHT22;48849;48.758;9.158;2023-05-29T04:10:02;16.50;99.90
2212;DHT22;48849;48.758;9.158;2023-05-29T04:12:29;16.60;99.90
2212;DHT22;48849;48.758;9.158;2023-05-29T04:14:57;16.60;99.90
2212;DHT22;48849;48.758;9.158;2023-05-29T04:17:24;16.50;99.90
2212;DHT22;48849;48.758;9.158;2023-05-29T04:19:52;16.50;99.90
2212;DHT22;48849;48.758;9.158;2023-05-29T04:22:19;16.60;99.90
2212;DHT22;48849;48.758;9.158;2023-05-29T04:24:46;16.50;99.90
2212;DHT22;48849;48.758;9.158;2023-05-29T04:27:13;16.50;99.90
2212;DHT22;48849;48.758;9.158;2023-05-29T04:29:40;16.50;99.90
2212;DHT22;48849;48.758;9.158;2023-05-29T04:32:07;16.50;99.90
2212;DHT22;48849;48.758;9.158;2023-05-29T04:34:36;16.50;99.90
2212;DHT22;48849;48.758;9.158;2023-05-29T04:37:06;16.50;99.90
2212;DHT22;48849;48.758;9.158;2023-05-29T04:39:32;16.50;99.90
2212;DHT22;48849;48.758;9.158;2023-05-29T04:41:59;16.50;99.90
2212;DHT22;48849;48.758;9.158;2023-05-29T04:44:26;16.60;99.90
2212;DHT22;48849;48.758;9.158;2023-05-29T04:46:55;16.60;99.90
2212;DHT22;48849;48.758;9.158;2023-05-29T04:49:23;16.60;99.90
2212;DHT22;48849;48.758;9.158;2023-05-29T04:51:50;16.60;99.90
2212;DHT22;48849;48.758;9.158;2023-05-29T04:54:21;16.60;99.90
2212;DHT22;48849;48.758;9.158;2023-05-29T04:56:48;16.60;99.90
2212;DHT22;48849;48.758;9.158;2023-05-29T04:59:15;16.60;99.90
2212;DHT22;48849;48.758;9.158;2023-05-29T05:01:42;16.70;99.90
2212;DHT22;48849;48.758;9.158;2023-05-29T05:04:09;16.70;99.90
2212;DHT22;48849;48.758;9.158;2023-05-29T05:06:36;16.70;99.90
2212;DHT22;48849;48.758;9.158;2023-05-29T05:09:04;16.80;99.90
2212;DHT22;48849;48.758;9.158;2023-05-29T05:11:32;16.80;99.90
2212;DHT22;48849;48.758;9.158;2023-05-29T05:13:59;16.80;99.90
2212;DHT22;48849;48.758;9.158;2023-05-29T05:16:26;16.80;99.90
2212;DHT22;48849;48.758;9.158;2023-05-29T05:18:53;16.80;99.90
2212;DHT22;48849;48.758;9.158;2023-05-29T05:21:20;16.80;99.90
2212;DHT22;48849;48.758;9.158;2023-05-29T05:23:47;16.90;99.90
2212;DHT22;48849;48.758;9.158;2023-05-29T05:26:13;17.00;99.90
2212;DHT22;48849;48.758;9.158;2023-05-29T05:28:42;17.00;99.90
2212;DHT22;48849;48.758;9.158;2023-05-29T05:31:09;17.00;99.90
2212;DHT22;48849;48.758;9.158;2023-05-29T05:33:36;17.00;99.90
2212;DHT22;48849;48.758;9.158;2023-05-29T05:36:03;17.00;99.90
2212;DHT22;48849;48.758;9.158;2023-05-29T05:38:30;17.10;99.90
2212;DHT22;48849;48.758;9.158;2023-05-29T05:40:57;17.20;99.90
2212;DHT22;48849;48.758;9.158;2023-05-29T05:43:24;17.20;99.90
2212;DHT22;48849;48.758;9.158;2023-05-29T05:45:54;17.20;99.90
2212;DHT22;48849;48.758;9.158;2023-05-29T05:48:21;17.30;99.90
2212;DHT22;48849;48.758;9.158;2023-05-29T05:50:50;17.30;99.90
2212;DHT22;48849;48.758;9.158;2023-05-29T05:53:18;17.30;99.90
2212;DHT22;48849;48.758;9.158;2023-05-29T05:55:46;17.30;99.90
2212;DHT22;48849;48.758;9.158;2023-05-29T05:58:13;17.40;99.90
2212;DHT22;48849;48.758;9.158;2023-05-29T06:00:40;17.50;99.90
2212;DHT22;48849;48.758;9.158;2023-05-29T06:03:12;17.40;99.90
2212;DHT22;48849;48.758;9.158;2023-05-29T06:05:46;17.50;99.90
2212;DHT22;48849;48.758;9.158;2023-05-29T06:08:22;17.50;99.90
2212;DHT22;48849;48.758;9.158;2023-05-29T06:10:55;17.50;99.90
2212;DHT22;48849;48.758;9.158;2023-05-29T06:13:38;17.60;99.90
2212;DHT22;48849;48.758;9.158;2023-05-29T06:16:10;17.60;99.90
2212;DHT22;48849;48.758;9.158;2023-05-29T06:18:43;17.60;99.90
2212;DHT22;48849;48.758;9.158;2023-05-29T06:22:02;17.60;99.90
2212;DHT22;48849;48.758;9.158;2023-05-29T06:24:16;17.70;99.90
2212;DHT22;48849;48.758;9.158;2023-05-29T06:26:50;17.70;99.90
2212;DHT22;48849;48.758;9.158;2023-05-29T06:29:39;17.80;99.90
2212;DHT22;48849;48.758;9.158;2023-05-29T06:32:14;17.80;99.90
2212;DHT22;48849;48.758;9.158;2023-05-29T06:34:44;17.90;99.90
2212;DHT22;48849;48.758;9.158;2023-05-29T06:37:28;17.90;99.90
2212;DHT22;48849;48.758;9.158;2023-05-29T06:40:02;18.00;99.90
2212;DHT22;48849;48.758;9.158;2023-05-29T06:42:34;18.00;99.90
2212;DHT22;48849;48.758;9.158;2023-05-29T06:45:15;18.00;99.90
2212;DHT22;48849;48.758;9.158;2023-05-29T06:48:00;18.10;99.90
2212;DHT22;48849;48.758;9.158;2023-05-29T06:50:37;18.10;99.90
2212;DHT22;48849;48.758;9.158;2023-05-29T06:53:08;18.10;99.90
2212;DHT22;48849;48.758;9.158;2023-05-29T06:55:54;18.20;99.90
2212;DHT22;48849;48.758;9.158;2023-05-29T06:58:43;18.30;99.90
2212;DHT22;48849;48.758;9.158;2023-05-29T07:01:28;18.30;99.90
2212;DHT22;48849;48.758;9.158;2023-05-29T07:04:05;18.30;99.90
2212;DHT22;48849;48.758;9.158;2023-05-29T07:06:41;18.30;99.90
2212;DHT22;48849;48.758;9.158;2023-05-29T07:09:19;18.30;99.90
2212;DHT22;48849;48.758;9.158;2023-05-29T07:11:54;18.40;99.90
2212;DHT22;48849;48.758;9.158;2023-05-29T07:14:33;18.40;99.90
2212;DHT22;48849;48.758;9.158;2023-05-29T07:17:04;18.40;99.90
2212;DHT22;48849;48.758;9.158;2023-05-29T07:20:01;18.50;99.90
2212;DHT22;48849;48.758;9.158;2023-05-29T07:23:06;18.40;99.90
2212;DHT22;48849;48.758;9.158;2023-05-29T07:25:37;18.50;99.90
2212;DHT22;48849;48.758;9.158;2023-05-29T07:28:33;18.50;99.90
2212;DHT22;48849;48.758;9.158;2023-05-29T07:31:02;18.60;99.90
2212;DHT22;48849;48.758;9.158;2023-05-29T07:33:37;18.70;99.90
2212;DHT22;48849;48.758;9.158;2023-05-29T07:36:30;18.70;99.90
2212;DHT22;48849;48.758;9.158;2023-05-29T07:39:08;18.70;99.90
2212;DHT22;48849;48.758;9.158;2023-05-29T07:41:56;18.70;99.90
2212;DHT22;48849;48.758;9.158;2023-05-29T07:44:57;18.80;99.90
2212;DHT22;48849;48.758;9.158;2023-05-29T07:48:14;18.80;99.90
2212;DHT22;48849;48.758;9.158;2023-05-29T07:50:29;18.80;99.90
2212;DHT22;48849;48.758;9.158;2023-05-29T07:53:16;18.80;99.90
2212;DHT22;48849;48.758;9.158;2023-05-29T07:55:55;18.90;99.90
2212;DHT22;48849;48.758;9.158;2023-05-29T07:58:38;18.90;99.90
2212;DHT22;48849;48.758;9.158;2023-05-29T08:01:18;18.90;99.90
2212;DHT22;48849;48.758;9.158;2023-05-29T08:03:46;19.00;99.90
2212;DHT22;48849;48.758;9.158;2023-05-29T08:06:13;19.00;99.90
2212;DHT22;48849;48.758;9.158;2023-05-29T08:08:40;19.10;99.90
2212;DHT22;48849;48.758;9.158;2023-05-29T08:11:09;19.10;99.90
2212;DHT22;48849;48.758;9.158;2023-05-29T08:13:37;19.10;99.90
2212;DHT22;48849;48.758;9.158;2023-05-29T08:16:09;19.20;99.90
2212;DHT22;48849;48.758;9.158;2023-05-29T08:18:42;19.20;99.90
2212;DHT22;48849;48.758;9.158;2023-05-29T08:21:10;19.20;99.90
2212;DHT22;48849;48.758;9.158;2023-05-29T08:24:10;19.30;99.90
2212;DHT22;48849;48.758;9.158;2023-05-29T08:26:55;19.30;99.90
2212;DHT22;48849;48.758;9.158;2023-05-29T08:29:29;19.30;99.90
2212;DHT22;48849;48.758;9.158;2023-05-29T08:32:14;19.30;99.90
2212;DHT22;48849;48.758;9.158;2023-05-29T08:34:46;19.40;99.90
2212;DHT22;48849;48.758;9.158;2023-05-29T08:37:21;19.40;99.90
2212;DHT22;48849;48.758;9.158;2023-05-29T08:39:50;19.40;99.90
2212;DHT22;48849;48.758;9.158;2023-05-29T08:42:33;19.50;99.90
2212;DHT22;48849;48.758;9.158;2023-05-29T08:45:10;19.50;99.90
2212;DHT22;48849;48.758;9.158;2023-05-29T08:48:01;19.50;99.90
2212;DHT22;48849;48.758;9.158;2023-05-29T08:50:29;19.60;99.90
2212;DHT22;48849;48.758;9.158;2023-05-29T08:52:57;19.60;99.90
2212;DHT22;48849;48.758;9.158;2023-05-29T08:55:24;19.60;99.90
2212;DHT22;48849;48.758;9.158;2023-05-29T08:57:53;19.60;99.90
2212;DHT22;48849;48.758;9.158;2023-05-29T09:00:23;19.70;99.90
2212;DHT22;48849;48.758;9.158;2023-05-29T09:02:54;19.70;99.90
2212;DHT22;48849;48.758;9.158;2023-05-29T09:05:21;19.70;99.90
2212;DHT22;48849;48.758;9.158;2023-05-29T09:07:48;19.80;99.90
2212;DHT22;48849;48.758;9.158;2023-05-29T09:10:16;19.80;99.90
2212;DHT22;48849;48.758;9.158;2023-05-29T09:12:43;19.80;99.90
2212;DHT22;48849;48.758;9.158;2023-05-29T09:15:19;19.90;99.90
2212;DHT22;48849;48.758;9.158;2023-05-29T09:17:51;19.90;99.90
2212;DHT22;48849;48.758;9.158;2023-05-29T09:20:19;20.00;99.90
2212;DHT22;48849;48.758;9.158;2023-05-29T09:22:55;20.00;99.90
2212;DHT22;48849;48.758;9.158;2023-05-29T09:25:23;20.00;99.90
2212;DHT22;48849;48.758;9.158;2023-05-29T09:27:54;20.00;99.90
2212;DHT22;48849;48.758;9.158;2023-05-29T09:30:39;20.00;99.90
2212;DHT22;48849;48.758;9.158;2023-05-29T09:33:09;20.10;99.90
2212;DHT22;48849;48.758;9.158;2023-05-29T09:35:37;20.20;99.90
2212;DHT22;48849;48.758;9.158;2023-05-29T09:38:07;20.20;99.90
2212;DHT22;48849;48.758;9.158;2023-05-29T09:40:39;20.20;99.90
2212;DHT22;48849;48.758;9.158;2023-05-29T09:43:10;20.30;99.90
2212;DHT22;48849;48.758;9.158;2023-05-29T09:45:41;20.30;99.90
2212;DHT22;48849;48.758;9.158;2023-05-29T09:48:15;20.30;99.90
2212;DHT22;48849;48.758;9.158;2023-05-29T09:50:42;20.40;99.90
2212;DHT22;48849;48.758;9.158;2023-05-29T09:53:16;20.40;99.90
2212;DHT22;48849;48.758;9.158;2023-05-29T09:55:48;20.40;99.90
2212;DHT22;48849;48.758;9.158;2023-05-29T09:58:17;20.50;99.90
2212;DHT22;48849;48.758;9.158;2023-05-29T10:00:46;20.60;99.90
2212;DHT22;48849;48.758;9.158;2023-05-29T10:03:17;20.60;99.90
2212;DHT22;48849;48.758;9.158;2023-05-29T10:05:52;20.60;99.90
2212;DHT22;48849;48.758;9.158;2023-05-29T10:08:22;20.70;99.90
2212;DHT22;48849;48.758;9.158;2023-05-29T10:10:55;20.70;99.90
2212;DHT22;48849;48.758;9.158;2023-05-29T10:16:57;20.80;99.90
2212;DHT22;48849;48.758;9.158;2023-05-29T10:19:58;20.80;99.90
2212;DHT22;48849;48.758;9.158;2023-05-29T10:22:34;20.80;99.90
2212;DHT22;48849;48.758;9.158;2023-05-29T10:25:03;20.90;99.90
2212;DHT22;48849;48.758;9.158;2023-05-29T10:27:31;20.90;99.90
2212;DHT22;48849;48.758;9.158;2023-05-29T10:30:04;20.90;99.90
2212;DHT22;48849;48.758;9.158;2023-05-29T10:32:44;21.00;99.90
2212;DHT22;48849;48.758;9.158;2023-05-29T10:35:18;21.00;99.90
2212;DHT22;48849;48.758;9.158;2023-05-29T10:37:54;21.10;99.90
2212;DHT22;48849;48.758;9.158;2023-05-29T10:40:36;21.10;99.90
2212;DHT22;48849;48.758;9.158;2023-05-29T10:43:30;21.10;99.90
2212;DHT22;48849;48.758;9.158;2023-05-29T10:46:06;21.20;99.90
2212;DHT22;48849;48.758;9.158;2023-05-29T10:49:13;21.30;99.90
2212;DHT22;48849;48.758;9.158;2023-05-29T10:51:42;21.40;99.90
2212;DHT22;48849;48.758;9.158;2023-05-29T10:54:13;21.50;99.90
2212;DHT22;48849;48.758;9.158;2023-05-29T10:56:44;21.50;99.90
2212;DHT22;48849;48.758;9.158;2023-05-29T10:59:18;21.60;99.90
2212;DHT22;48849;48.758;9.158;2023-05-29T11:01:45;21.80;99.90
2212;DHT22;48849;48.758;9.158;2023-05-29T11:04:29;21.90;99.90
2212;DHT22;48849;48.758;9.158;2023-05-29T11:06:58;21.90;99.90
2212;DHT22;48849;48.758;9.158;2023-05-29T11:09:34;22.10;99.90
2212;DHT22;48849;48.758;9.158;2023-05-29T11:12:21;22.20;99.90
2212;DHT22;48849;48.758;9.158;2023-05-29T11:15:03;22.30;99.90
2212;DHT22;48849;48.758;9.158;2023-05-29T11:17:43;22.40;99.90
2212;DHT22;48849;48.758;9.158;2023-05-29T11:20:26;22.50;99.90
2212;DHT22;48849;48.758;9.158;2023-05-29T11:23:01;22.60;99.90
2212;DHT22;48849;48.758;9.158;2023-05-29T11:25:29;22.70;99.90
2212;DHT22;48849;48.758;9.158;2023-05-29T11:27:59;22.80;99.90
2212;DHT22;48849;48.758;9.158;2023-05-29T11:30:26;22.90;99.90
2212;DHT22;48849;48.758;9.158;2023-05-29T11:32:53;23.00;99.90
2212;DHT22;48849;48.758;9.158;2023-05-29T11:35:23;23.10;99.90
2212;DHT22;48849;48.758;9.158;2023-05-29T11:37:50;23.20;99.90
2212;DHT22;48849;48.758;9.158;2023-05-29T11:40:17;23.30;99.90
2212;DHT22;48849;48.758;9.158;2023-05-29T11:42:45;23.40;99.90
2212;DHT22;48849;48.758;9.158;2023-05-29T11:45:14;23.40;99.90
2212;DHT22;48849;48.758;9.158;2023-05-29T11:47:52;23.50;99.90
2212;DHT22;48849;48.758;9.158;2023-05-29T11:50:19;23.60;99.90
2212;DHT22;48849;48.758;9.158;2023-05-29T11:52:48;23.70;99.90
2212;DHT22;48849;48.758;9.158;2023-05-29T11:55:15;23.80;99.90
2212;DHT22;48849;48.758;9.158;2023-05-29T11:57:42;23.90;99.90
2212;DHT22;48849;48.758;9.158;2023-05-29T12:00:13;24.00;99.90
2212;DHT22;48849;48.758;9.158;2023-05-29T12:02:40;24.10;99.90
2212;DHT22;48849;48.758;9.158;2023-05-29T12:05:08;24.10;99.90
2212;DHT22;48849;48.758;9.158;2023-05-29T12:07:35;24.20;99.90
2212;DHT22;48849;48.758;9.158;2023-05-29T12:10:14;24.30;99.90
2212;DHT22;48849;48.758;9.158;2023-05-29T12:12:41;24.40;99.90
2212;DHT22;48849;48.758;9.158;2023-05-29T12:15:09;24.50;99.90
2212;DHT22;48849;48.758;9.158;2023-05-29T12:17:36;24.50;99.90
2212;DHT22;48849;48.758;9.158;2023-05-29T12:20:04;24.50;99.90
2212;DHT22;48849;48.758;9.158;2023-05-29T12:22:35;24.70;99.90
2212;DHT22;48849;48.758;9.158;2023-05-29T12:25:06;24.80;99.90
2212;DHT22;48849;48.758;9.158;2023-05-29T12:27:36;24.80;99.90
2212;DHT22;48849;48.758;9.158;2023-05-29T12:30:08;24.90;99.90
2212;DHT22;48849;48.758;9.158;2023-05-29T12:32:36;24.90;99.90
2212;DHT22;48849;48.758;9.158;2023-05-29T12:35:13;25.00;99.90
2212;DHT22;48849;48.758;9.158;2023-05-29T12:37:44;25.00;99.90
2212;DHT22;48849;48.758;9.158;2023-05-29T12:40:16;25.10;99.90
2212;DHT22;48849;48.758;9.158;2023-05-29T12:42:44;25.20;99.90
2212;DHT22;48849;48.758;9.158;2023-05-29T12:45:11;25.30;99.90
2212;DHT22;48849;48.758;9.158;2023-05-29T12:47:44;25.30;99.90
2212;DHT22;48849;48.758;9.158;2023-05-29T12:50:22;25.40;99.90
2212;DHT22;48849;48.758;9.158;2023-05-29T12:52:57;25.50;99.90
2212;DHT22;48849;48.758;9.158;2023-05-29T12:55:24;25.60;99.90
2212;DHT22;48849;48.758;9.158;2023-05-29T12:57:53;25.70;99.90
2212;DHT22;48849;48.758;9.158;2023-05-29T13:00:20;25.80;99.90
2212;DHT22;48849;48.758;9.158;2023-05-29T13:02:47;25.90;99.90
2212;DHT22;48849;48.758;9.158;2023-05-29T13:05:15;26.10;99.10
2212;DHT22;48849;48.758;9.158;2023-05-29T13:07:45;26.10;99.40
2212;DHT22;48849;48.758;9.158;2023-05-29T13:10:12;26.20;98.50
2212;DHT22;48849;48.758;9.158;2023-05-29T13:12:39;26.30;99.90
2212;DHT22;48849;48.758;9.158;2023-05-29T13:15:09;26.30;99.00
2212;DHT22;48849;48.758;9.158;2023-05-29T13:17:36;26.40;98.70
2212;DHT22;48849;48.758;9.158;2023-05-29T13:20:07;26.40;98.30
2212;DHT22;48849;48.758;9.158;2023-05-29T13:22:35;26.50;97.30
2212;DHT22;48849;48.758;9.158;2023-05-29T13:25:02;26.50;97.40
2212;DHT22;48849;48.758;9.158;2023-05-29T13:27:32;26.60;96.80
2212;DHT22;48849;48.758;9.158;2023-05-29T13:29:59;26.60;97.30
2212;DHT22;48849;48.758;9.158;2023-05-29T13:32:27;26.60;98.50
2212;DHT22;48849;48.758;9.158;2023-05-29T13:34:54;26.50;97.40
2212;DHT22;48849;48.758;9.158;2023-05-29T13:37:20;26.40;97.40
2212;DHT22;48849;48.758;9.158;2023-05-29T13:39:47;26.40;97.90
2212;DHT22;48849;48.758;9.158;2023-05-29T13:42:15;26.40;97.00
2212;DHT22;48849;48.758;9.158;2023-05-29T13:44:41;26.30;97.70
2212;DHT22;48849;48.758;9.158;2023-05-29T13:47:08;26.40;97.70
2212;DHT22;48849;48.758;9.158;2023-05-29T13:49:36;26.50;99.10
2212;DHT22;48849;48.758;9.158;2023-05-29T13:52:04;26.70;98.80
2212;DHT22;48849;48.758;9.158;2023-05-29T13:54:31;27.10;98.50
2212;DHT22;48849;48.758;9.158;2023-05-29T13:57:01;28.20;98.40
2212;DHT22;48849;48.758;9.158;2023-05-29T13:59:28;30.00;96.30
2212;DHT22;48849;48.758;9.158;2023-05-29T14:01:55;31.80;94.80
2212;DHT22;48849;48.758;9.158;2023-05-29T14:04:21;33.50;92.80
2212;DHT22;48849;48.758;9.158;2023-05-29T14:06:49;34.60;90.80
2212;DHT22;48849;48.758;9.158;2023-05-29T14:09:16;34.10;90.20
2212;DHT22;48849;48.758;9.158;2023-05-29T14:11:47;32.90;90.20
2212;DHT22;48849;48.758;9.158;2023-05-29T14:14:14;31.70;91.00
2212;DHT22;48849;48.758;9.158;2023-05-29T14:16:42;30.60;91.30
2212;DHT22;48849;48.758;9.158;2023-05-29T14:19:09;29.60;91.00
2212;DHT22;48849;48.758;9.158;2023-05-29T14:21:35;28.80;91.90
2212;DHT22;48849;48.758;9.158;2023-05-29T14:24:04;28.10;92.30
2212;DHT22;48849;48.758;9.158;2023-05-29T14:26:31;27.50;92.90
2212;DHT22;48849;48.758;9.158;2023-05-29T14:28:58;27.00;93.20
2212;DHT22;48849;48.758;9.158;2023-05-29T14:31:27;26.60;93.60
2212;DHT22;48849;48.758;9.158;2023-05-29T14:33:54;26.20;93.90
2212;DHT22;48849;48.758;9.158;2023-05-29T14:36:21;25.90;94.50
2212;DHT22;48849;48.758;9.158;2023-05-29T14:38:48;25.60;96.30
2212;DHT22;48849;48.758;9.158;2023-05-29T14:41:16;25.40;96.50
2212;DHT22;48849;48.758;9.158;2023-05-29T14:43:43;25.10;96.90
2212;DHT22;48849;48.758;9.158;2023-05-29T14:46:10;25.00;97.10
2212;DHT22;48849;48.758;9.158;2023-05-29T14:48:37;24.80;98.30
2212;DHT22;48849;48.758;9.158;2023-05-29T14:51:04;24.70;97.60
2212;DHT22;48849;48.758;9.158;2023-05-29T14:53:31;24.60;98.10
2212;DHT22;48849;48.758;9.158;2023-05-29T14:55:58;24.50;97.50
2212;DHT22;48849;48.758;9.158;2023-05-29T14:58:27;24.40;96.50
2212;DHT22;48849;48.758;9.158;2023-05-29T15:00:53;24.30;97.00
2212;DHT22;48849;48.758;9.158;2023-05-29T15:03:20;24.30;98.50
2212;DHT22;48849;48.758;9.158;2023-05-29T15:05:51;24.20;99.30
2212;DHT22;48849;48.758;9.158;2023-05-29T15:08:19;24.10;98.10
2212;DHT22;48849;48.758;9.158;2023-05-29T15:10:45;24.00;97.90
2212;DHT22;48849;48.758;9.158;2023-05-29T15:13:12;24.00;99.20
2212;DHT22;48849;48.758;9.158;2023-05-29T15:15:41;24.00;99.10
2212;DHT22;48849;48.758;9.158;2023-05-29T15:18:07;23.90;98.50
2212;DHT22;48849;48.758;9.158;2023-05-29T15:20:34;23.90;98.40
2212;DHT22;48849;48.758;9.158;2023-05-29T15:23:01;23.90;98.20
2212;DHT22;48849;48.758;9.158;2023-05-29T15:25:28;23.90;98.70
2212;DHT22;48849;48.758;9.158;2023-05-29T15:27:55;23.80;99.00
2212;DHT22;48849;48.758;9.158;2023-05-29T15:30:22;23.80;98.90
2212;DHT22;48849;48.758;9.158;2023-05-29T15:32:50;23.80;99.00
2212;DHT22;48849;48.758;9.158;2023-05-29T15:35:17;23.70;98.40
2212;DHT22;48849;48.758;9.158;2023-05-29T15:37:44;23.70;98.50
2212;DHT22;48849;48.758;9.158;2023-05-29T15:40:11;23.60;98.80
2212;DHT22;48849;48.758;9.158;2023-05-29T15:42:38;23.60;99.70
2212;DHT22;48849;48.758;9.158;2023-05-29T15:45:06;23.60;99.10
2212;DHT22;48849;48.758;9.158;2023-05-29T15:47:33;23.60;99.20
2212;DHT22;48849;48.758;9.158;2023-05-29T15:50:01;23.60;98.90
2212;DHT22;48849;48.758;9.158;2023-05-29T15:52:28;23.60;99.00
2212;DHT22;48849;48.758;9.158;2023-05-29T15:54:55;23.60;99.90
2212;DHT22;48849;48.758;9.158;2023-05-29T15:57:22;23.50;99.90
2212;DHT22;48849;48.758;9.158;2023-05-29T15:59:49;23.50;99.90
2212;DHT22;48849;48.758;9.158;2023-05-29T16:02:16;23.50;99.90
2212;DHT22;48849;48.758;9.158;2023-05-29T16:04:42;23.50;99.90
2212;DHT22;48849;48.758;9.158;2023-05-29T16:07:11;23.40;99.90
2212;DHT22;48849;48.758;9.158;2023-05-29T16:09:37;23.30;99.90